sensor_id;sensor_type;location;lat;lon;timestamp;temperature;humidity
62007;DHT22;47963;53.008;6.754;2022-07-06T00:01:38;14.10;99.90
62007;DHT22;47963;53.008;6.754;2022-07-06T00:04:04;14.30;99.90
62007;DHT22;47963;53.008;6.754;2022-07-06T00:06:31;14.40;99.90
62007;DHT22;47963;53.008;6.754;2022-07-06T00:08:57;14.40;99.90
62007;DHT22;47963;53.008;6.754;2022-07-06T00:11:24;14.40;99.90
62007;DHT22;47963;53.008;6.754;2022-07-06T00:13:50;14.40;99.90
62007;DHT22;47963;53.008;6.754;2022-07-06T00:16:17;14.20;99.90
62007;DHT22;47963;53.008;6.754;2022-07-06T00:18:42;14.20;99.90
62007;DHT22;47963;53.008;6.754;2022-07-06T00:21:08;14.30;99.90
62007;DHT22;47963;53.008;6.754;2022-07-06T00:23:34;14.30;99.90
62007;DHT22;47963;53.008;6.754;2022-07-06T00:26:00;14.20;99.90
62007;DHT22;47963;53.008;6.754;2022-07-06T00:28:25;14.30;99.90
62007;DHT22;47963;53.008;6.754;2022-07-06T00:30:52;14.20;99.90
62007;DHT22;47963;53.008;6.754;2022-07-06T00:33:18;14.20;99.90
62007;DHT22;47963;53.008;6.754;2022-07-06T00:35:43;14.20;99.90
62007;DHT22;47963;53.008;6.754;2022-07-06T00:38:09;14.10;99.90
62007;DHT22;47963;53.008;6.754;2022-07-06T00:40:35;14.10;99.90
62007;DHT22;47963;53.008;6.754;2022-07-06T00:43:00;14.10;99.90
62007;DHT22;47963;53.008;6.754;2022-07-06T00:45:26;14.10;99.90
62007;DHT22;47963;53.008;6.754;2022-07-06T00:47:52;14.10;99.90
62007;DHT22;47963;53.008;6.754;2022-07-06T00:50:18;14.10;99.90
62007;DHT22;47963;53.008;6.754;2022-07-06T00:53:00;14.10;99.90
62007;DHT22;47963;53.008;6.754;2022-07-06T00:55:28;14.10;99.90
62007;DHT22;47963;53.008;6.754;2022-07-06T00:57:55;14.00;99.90
62007;DHT22;47963;53.008;6.754;2022-07-06T01:00:23;14.00;99.90
62007;DHT22;47963;53.008;6.754;2022-07-06T01:02:52;14.00;99.90
62007;DHT22;47963;53.008;6.754;2022-07-06T01:05:18;13.90;99.90
62007;DHT22;47963;53.008;6.754;2022-07-06T01:07:45;13.90;99.90
62007;DHT22;47963;53.008;6.754;2022-07-06T01:10:13;13.90;99.90
62007;DHT22;47963;53.008;6.754;2022-07-06T01:12:40;13.90;99.90
62007;DHT22;47963;53.008;6.754;2022-07-06T01:15:09;13.90;99.90
62007;DHT22;47963;53.008;6.754;2022-07-06T01:17:35;14.00;99.90
62007;DHT22;47963;53.008;6.754;2022-07-06T01:20:23;13.90;99.90
62007;DHT22;47963;53.008;6.754;2022-07-06T01:22:50;13.90;99.90
62007;DHT22;47963;53.008;6.754;2022-07-06T01:25:17;13.90;99.90
62007;DHT22;47963;53.008;6.754;2022-07-06T01:27:43;13.90;99.90
62007;DHT22;47963;53.008;6.754;2022-07-06T01:30:11;13.90;99.90
62007;DHT22;47963;53.008;6.754;2022-07-06T01:32:38;14.00;99.90
62007;DHT22;47963;53.008;6.754;2022-07-06T01:35:08;13.90;99.90
62007;DHT22;47963;53.008;6.754;2022-07-06T01:37:34;13.90;99.90
62007;DHT22;47963;53.008;6.754;2022-07-06T01:40:00;13.80;99.90
62007;DHT22;47963;53.008;6.754;2022-07-06T01:42:27;13.80;99.90
62007;DHT22;47963;53.008;6.754;2022-07-06T01:44:55;13.80;99.90
62007;DHT22;47963;53.008;6.754;2022-07-06T01:47:21;13.90;99.90
62007;DHT22;47963;53.008;6.754;2022-07-06T01:49:46;13.90;99.90
62007;DHT22;47963;53.008;6.754;2022-07-06T01:52:12;13.90;99.90
62007;DHT22;47963;53.008;6.754;2022-07-06T01:54:38;13.80;99.90
62007;DHT22;47963;53.008;6.754;2022-07-06T01:57:04;13.80;99.90
62007;DHT22;47963;53.008;6.754;2022-07-06T01:59:29;13.90;99.90
62007;DHT22;47963;53.008;6.754;2022-07-06T02:01:55;13.90;99.90
62007;DHT22;47963;53.008;6.754;2022-07-06T02:04:21;13.80;99.90
62007;DHT22;47963;53.008;6.754;2022-07-06T02:06:46;13.80;99.90
62007;DHT22;47963;53.008;6.754;2022-07-06T02:09:12;13.80;99.90
62007;DHT22;47963;53.008;6.754;2022-07-06T02:11:38;13.80;99.90
62007;DHT22;47963;53.008;6.754;2022-07-06T02:14:03;13.70;99.90
62007;DHT22;47963;53.008;6.754;2022-07-06T02:16:29;13.70;99.90
62007;DHT22;47963;53.008;6.754;2022-07-06T02:18:55;13.70;99.90
62007;DHT22;47963;53.008;6.754;2022-07-06T02:21:21;13.70;99.90
62007;DHT22;47963;53.008;6.754;2022-07-06T02:23:46;13.60;99.90
62007;DHT22;47963;53.008;6.754;2022-07-06T02:26:12;13.60;99.90
62007;DHT22;47963;53.008;6.754;2022-07-06T02:28:38;13.70;99.90
62007;DHT22;47963;53.008;6.754;2022-07-06T02:31:03;13.60;99.90
62007;DHT22;47963;53.008;6.754;2022-07-06T02:33:29;13.70;99.90
62007;DHT22;47963;53.008;6.754;2022-07-06T02:35:55;13.70;99.90
62007;DHT22;47963;53.008;6.754;2022-07-06T02:38:20;13.70;99.90
62007;DHT22;47963;53.008;6.754;2022-07-06T02:40:47;13.70;99.90
62007;DHT22;47963;53.008;6.754;2022-07-06T02:43:12;13.70;99.90
62007;DHT22;47963;53.008;6.754;2022-07-06T02:45:38;13.70;99.90
62007;DHT22;47963;53.008;6.754;2022-07-06T02:48:04;13.70;99.90
62007;DHT22;47963;53.008;6.754;2022-07-06T02:50:30;13.70;99.90
62007;DHT22;47963;53.008;6.754;2022-07-06T02:52:55;13.70;99.90
62007;DHT22;47963;53.008;6.754;2022-07-06T02:55:21;13.70;99.90
62007;DHT22;47963;53.008;6.754;2022-07-06T02:57:47;13.70;99.90
62007;DHT22;47963;53.008;6.754;2022-07-06T03:00:13;13.70;99.90
62007;DHT22;47963;53.008;6.754;2022-07-06T03:02:39;13.60;99.90
62007;DHT22;47963;53.008;6.754;2022-07-06T03:05:05;13.60;99.90
62007;DHT22;47963;53.008;6.754;2022-07-06T03:07:31;13.60;99.90
62007;DHT22;47963;53.008;6.754;2022-07-06T03:09:56;13.60;99.90
62007;DHT22;47963;53.008;6.754;2022-07-06T03:12:22;13.60;99.90
62007;DHT22;47963;53.008;6.754;2022-07-06T03:14:47;13.60;99.90
62007;DHT22;47963;53.008;6.754;2022-07-06T03:17:13;13.50;99.90
62007;DHT22;47963;53.008;6.754;2022-07-06T03:19:39;13.60;99.90
62007;DHT22;47963;53.008;6.754;2022-07-06T03:22:04;13.60;99.90
62007;DHT22;47963;53.008;6.754;2022-07-06T03:24:30;13.70;99.90
62007;DHT22;47963;53.008;6.754;2022-07-06T03:26:56;13.60;99.90
62007;DHT22;47963;53.008;6.754;2022-07-06T03:29:21;13.60;99.90
62007;DHT22;47963;53.008;6.754;2022-07-06T03:31:47;13.60;99.90
62007;DHT22;47963;53.008;6.754;2022-07-06T03:34:13;13.60;99.90
62007;DHT22;47963;53.008;6.754;2022-07-06T03:36:38;13.60;99.90
62007;DHT22;47963;53.008;6.754;2022-07-06T03:39:04;13.60;99.90
62007;DHT22;47963;53.008;6.754;2022-07-06T03:41:30;13.60;99.90
62007;DHT22;47963;53.008;6.754;2022-07-06T03:43:56;13.60;99.90
62007;DHT22;47963;53.008;6.754;2022-07-06T03:46:25;13.60;99.90
62007;DHT22;47963;53.008;6.754;2022-07-06T03:48:50;13.60;99.90
62007;DHT22;47963;53.008;6.754;2022-07-06T03:51:16;13.60;99.90
62007;DHT22;47963;53.008;6.754;2022-07-06T03:53:42;13.60;99.90
62007;DHT22;47963;53.008;6.754;2022-07-06T03:56:08;13.60;99.90
62007;DHT22;47963;53.008;6.754;2022-07-06T03:58:52;13.70;99.90
62007;DHT22;47963;53.008;6.754;2022-07-06T04:01:17;13.60;99.90
62007;DHT22;47963;53.008;6.754;2022-07-06T04:03:43;13.60;99.90
62007;DHT22;47963;53.008;6.754;2022-07-06T04:06:10;13.60;99.90
62007;DHT22;47963;53.008;6.754;2022-07-06T04:08:35;13.50;99.90
62007;DHT22;47963;53.008;6.754;2022-07-06T04:11:01;13.50;99.90
62007;DHT22;47963;53.008;6.754;2022-07-06T04:13:27;13.50;99.90
62007;DHT22;47963;53.008;6.754;2022-07-06T04:15:55;13.50;99.90
62007;DHT22;47963;53.008;6.754;2022-07-06T04:18:21;13.50;99.90
62007;DHT22;47963;53.008;6.754;2022-07-06T04:20:46;13.50;99.90
62007;DHT22;47963;53.008;6.754;2022-07-06T04:23:12;13.50;99.90
62007;DHT22;47963;53.008;6.754;2022-07-06T04:25:38;13.60;99.90
62007;DHT22;47963;53.008;6.754;2022-07-06T04:28:03;13.50;99.90
62007;DHT22;47963;53.008;6.754;2022-07-06T04:30:29;13.60;99.90
62007;DHT22;47963;53.008;6.754;2022-07-06T04:32:55;13.50;99.90
62007;DHT22;47963;53.008;6.754;2022-07-06T04:35:21;13.60;99.90
62007;DHT22;47963;53.008;6.754;2022-07-06T04:37:46;13.60;99.90
62007;DHT22;47963;53.008;6.754;2022-07-06T04:40:13;13.70;99.90
62007;DHT22;47963;53.008;6.754;2022-07-06T04:42:39;13.60;99.90
62007;DHT22;47963;53.008;6.754;2022-07-06T04:45:05;13.70;99.90
62007;DHT22;47963;53.008;6.754;2022-07-06T04:47:31;13.70;99.90
62007;DHT22;47963;53.008;6.754;2022-07-06T04:49:57;13.80;99.90
62007;DHT22;47963;53.008;6.754;2022-07-06T04:52:22;13.80;99.90
62007;DHT22;47963;53.008;6.754;2022-07-06T04:54:48;13.80;99.90
62007;DHT22;47963;53.008;6.754;2022-07-06T04:57:14;13.90;99.90
62007;DHT22;47963;53.008;6.754;2022-07-06T04:59:39;14.00;99.90
62007;DHT22;47963;53.008;6.754;2022-07-06T05:02:05;14.00;99.90
62007;DHT22;47963;53.008;6.754;2022-07-06T05:04:31;14.20;99.90
62007;DHT22;47963;53.008;6.754;2022-07-06T05:06:57;14.20;99.90
62007;DHT22;47963;53.008;6.754;2022-07-06T05:09:22;14.20;99.90
62007;DHT22;47963;53.008;6.754;2022-07-06T05:11:51;14.20;99.90
62007;DHT22;47963;53.008;6.754;2022-07-06T05:14:17;14.30;99.90
62007;DHT22;47963;53.008;6.754;2022-07-06T05:16:42;14.20;99.90
62007;DHT22;47963;53.008;6.754;2022-07-06T05:19:08;14.20;99.90
62007;DHT22;47963;53.008;6.754;2022-07-06T05:21:34;14.20;99.90
62007;DHT22;47963;53.008;6.754;2022-07-06T05:23:59;14.20;99.90
62007;DHT22;47963;53.008;6.754;2022-07-06T05:26:25;14.20;99.90
62007;DHT22;47963;53.008;6.754;2022-07-06T05:28:50;14.20;99.90
62007;DHT22;47963;53.008;6.754;2022-07-06T05:31:16;14.20;99.90
62007;DHT22;47963;53.008;6.754;2022-07-06T05:33:42;14.10;99.90
62007;DHT22;47963;53.008;6.754;2022-07-06T05:36:08;14.20;99.90
62007;DHT22;47963;53.008;6.754;2022-07-06T05:38:33;14.20;99.90
62007;DHT22;47963;53.008;6.754;2022-07-06T05:40:59;14.20;99.90
62007;DHT22;47963;53.008;6.754;2022-07-06T05:43:25;14.20;99.90
62007;DHT22;47963;53.008;6.754;2022-07-06T05:45:52;14.20;99.90
62007;DHT22;47963;53.008;6.754;2022-07-06T05:48:18;14.20;99.90
62007;DHT22;47963;53.008;6.754;2022-07-06T05:51:02;14.20;99.90
62007;DHT22;47963;53.008;6.754;2022-07-06T05:53:28;14.30;99.90
62007;DHT22;47963;53.008;6.754;2022-07-06T05:55:54;14.20;99.90
62007;DHT22;47963;53.008;6.754;2022-07-06T05:58:19;14.30;99.90
62007;DHT22;47963;53.008;6.754;2022-07-06T06:00:45;14.30;99.90
62007;DHT22;47963;53.008;6.754;2022-07-06T06:03:11;14.30;99.90
62007;DHT22;47963;53.008;6.754;2022-07-06T06:05:36;14.30;99.90
62007;DHT22;47963;53.008;6.754;2022-07-06T06:08:02;14.30;99.90
62007;DHT22;47963;53.008;6.754;2022-07-06T06:10:28;14.30;99.90
62007;DHT22;47963;53.008;6.754;2022-07-06T06:12:54;14.30;99.90
62007;DHT22;47963;53.008;6.754;2022-07-06T06:15:19;14.30;99.90
62007;DHT22;47963;53.008;6.754;2022-07-06T06:17:45;14.10;99.90
62007;DHT22;47963;53.008;6.754;2022-07-06T06:20:12;14.10;99.90
62007;DHT22;47963;53.008;6.754;2022-07-06T06:22:48;14.10;99.90
62007;DHT22;47963;53.008;6.754;2022-07-06T06:25:16;14.10;99.90
62007;DHT22;47963;53.008;6.754;2022-07-06T06:27:42;14.00;99.90
62007;DHT22;47963;53.008;6.754;2022-07-06T06:30:09;14.20;99.90
62007;DHT22;47963;53.008;6.754;2022-07-06T06:32:35;14.30;99.90
62007;DHT22;47963;53.008;6.754;2022-07-06T06:35:01;14.40;99.90
62007;DHT22;47963;53.008;6.754;2022-07-06T06:37:27;14.40;99.90
62007;DHT22;47963;53.008;6.754;2022-07-06T06:39:52;14.50;99.90
62007;DHT22;47963;53.008;6.754;2022-07-06T06:42:18;14.60;99.90
62007;DHT22;47963;53.008;6.754;2022-07-06T06:44:43;14.60;99.90
62007;DHT22;47963;53.008;6.754;2022-07-06T06:47:09;14.60;99.90
62007;DHT22;47963;53.008;6.754;2022-07-06T06:49:35;14.60;99.90
62007;DHT22;47963;53.008;6.754;2022-07-06T06:52:00;14.60;99.90
62007;DHT22;47963;53.008;6.754;2022-07-06T06:54:29;14.70;99.90
62007;DHT22;47963;53.008;6.754;2022-07-06T06:56:55;14.70;99.90
62007;DHT22;47963;53.008;6.754;2022-07-06T06:59:21;14.60;99.90
62007;DHT22;47963;53.008;6.754;2022-07-06T07:01:47;14.70;99.90
62007;DHT22;47963;53.008;6.754;2022-07-06T07:04:13;14.70;99.90
62007;DHT22;47963;53.008;6.754;2022-07-06T07:06:39;14.70;99.90
62007;DHT22;47963;53.008;6.754;2022-07-06T07:09:04;14.70;99.90
62007;DHT22;47963;53.008;6.754;2022-07-06T07:11:30;14.80;99.90
62007;DHT22;47963;53.008;6.754;2022-07-06T07:13:56;14.80;99.90
62007;DHT22;47963;53.008;6.754;2022-07-06T07:16:22;14.90;99.90
62007;DHT22;47963;53.008;6.754;2022-07-06T07:18:50;14.90;99.90
62007;DHT22;47963;53.008;6.754;2022-07-06T07:21:16;15.00;99.90
62007;DHT22;47963;53.008;6.754;2022-07-06T07:23:41;15.10;99.90
62007;DHT22;47963;53.008;6.754;2022-07-06T07:26:07;15.20;99.90
62007;DHT22;47963;53.008;6.754;2022-07-06T07:28:33;15.20;99.90
62007;DHT22;47963;53.008;6.754;2022-07-06T07:30:59;15.30;99.90
62007;DHT22;47963;53.008;6.754;2022-07-06T07:33:24;15.30;99.90
62007;DHT22;47963;53.008;6.754;2022-07-06T07:35:50;15.40;99.90
62007;DHT22;47963;53.008;6.754;2022-07-06T07:38:16;15.50;99.90
62007;DHT22;47963;53.008;6.754;2022-07-06T07:40:41;15.70;99.90
62007;DHT22;47963;53.008;6.754;2022-07-06T07:43:07;15.80;99.90
62007;DHT22;47963;53.008;6.754;2022-07-06T07:45:33;15.90;99.90
62007;DHT22;47963;53.008;6.754;2022-07-06T07:47:58;15.80;99.90
62007;DHT22;47963;53.008;6.754;2022-07-06T07:50:24;16.00;99.90
62007;DHT22;47963;53.008;6.754;2022-07-06T07:52:50;16.10;99.90
62007;DHT22;47963;53.008;6.754;2022-07-06T07:55:16;16.20;99.90
62007;DHT22;47963;53.008;6.754;2022-07-06T07:57:41;16.40;99.90
62007;DHT22;47963;53.008;6.754;2022-07-06T08:00:08;16.50;99.90
62007;DHT22;47963;53.008;6.754;2022-07-06T08:02:33;16.60;99.90
62007;DHT22;47963;53.008;6.754;2022-07-06T08:04:59;16.60;99.90
62007;DHT22;47963;53.008;6.754;2022-07-06T08:07:25;16.70;99.90
62007;DHT22;47963;53.008;6.754;2022-07-06T08:09:50;16.80;99.90
62007;DHT22;47963;53.008;6.754;2022-07-06T08:12:16;17.00;99.90
62007;DHT22;47963;53.008;6.754;2022-07-06T08:14:42;17.00;99.90
62007;DHT22;47963;53.008;6.754;2022-07-06T08:17:07;17.10;99.90
62007;DHT22;47963;53.008;6.754;2022-07-06T08:19:33;17.10;99.90
62007;DHT22;47963;53.008;6.754;2022-07-06T08:21:58;16.90;99.90
62007;DHT22;47963;53.008;6.754;2022-07-06T08:24:24;16.90;99.90
62007;DHT22;47963;53.008;6.754;2022-07-06T08:26:50;16.80;99.90
62007;DHT22;47963;53.008;6.754;2022-07-06T08:29:15;16.70;99.90
62007;DHT22;47963;53.008;6.754;2022-07-06T08:31:41;16.60;99.90
62007;DHT22;47963;53.008;6.754;2022-07-06T08:34:07;16.60;99.90
62007;DHT22;47963;53.008;6.754;2022-07-06T08:36:32;16.60;99.90
62007;DHT22;47963;53.008;6.754;2022-07-06T08:38:58;16.40;99.90
62007;DHT22;47963;53.008;6.754;2022-07-06T08:41:26;16.20;99.90
62007;DHT22;47963;53.008;6.754;2022-07-06T08:43:53;16.10;99.90
62007;DHT22;47963;53.008;6.754;2022-07-06T08:46:20;16.00;99.90
62007;DHT22;47963;53.008;6.754;2022-07-06T08:48:48;16.00;99.90
62007;DHT22;47963;53.008;6.754;2022-07-06T08:51:14;16.00;99.90
62007;DHT22;47963;53.008;6.754;2022-07-06T08:53:44;16.10;99.90
62007;DHT22;47963;53.008;6.754;2022-07-06T08:56:10;16.20;99.90
62007;DHT22;47963;53.008;6.754;2022-07-06T08:58:37;16.30;99.90
62007;DHT22;47963;53.008;6.754;2022-07-06T09:01:02;16.40;99.90
62007;DHT22;47963;53.008;6.754;2022-07-06T09:03:28;16.50;99.90
62007;DHT22;47963;53.008;6.754;2022-07-06T09:05:59;16.70;99.90
62007;DHT22;47963;53.008;6.754;2022-07-06T09:08:27;16.70;99.90
62007;DHT22;47963;53.008;6.754;2022-07-06T09:10:54;16.90;99.90
62007;DHT22;47963;53.008;6.754;2022-07-06T09:13:20;17.00;99.90
62007;DHT22;47963;53.008;6.754;2022-07-06T09:15:46;17.00;99.90
62007;DHT22;47963;53.008;6.754;2022-07-06T09:18:11;17.10;99.90
62007;DHT22;47963;53.008;6.754;2022-07-06T09:20:37;17.20;99.90
62007;DHT22;47963;53.008;6.754;2022-07-06T09:23:04;17.40;99.90
62007;DHT22;47963;53.008;6.754;2022-07-06T09:25:31;17.50;99.90
62007;DHT22;47963;53.008;6.754;2022-07-06T09:27:58;17.30;99.90
62007;DHT22;47963;53.008;6.754;2022-07-06T09:30:25;17.20;99.90
62007;DHT22;47963;53.008;6.754;2022-07-06T09:32:54;17.10;99.90
62007;DHT22;47963;53.008;6.754;2022-07-06T09:35:23;17.10;99.90
62007;DHT22;47963;53.008;6.754;2022-07-06T09:38:13;17.00;99.90
62007;DHT22;47963;53.008;6.754;2022-07-06T09:40:41;17.30;99.90
62007;DHT22;47963;53.008;6.754;2022-07-06T09:45:42;17.40;99.90
62007;DHT22;47963;53.008;6.754;2022-07-06T09:48:16;17.30;99.90
62007;DHT22;47963;53.008;6.754;2022-07-06T09:50:48;17.40;99.90
62007;DHT22;47963;53.008;6.754;2022-07-06T09:53:16;17.20;99.90
62007;DHT22;47963;53.008;6.754;2022-07-06T09:55:47;17.30;99.90
62007;DHT22;47963;53.008;6.754;2022-07-06T09:58:13;17.30;99.90
62007;DHT22;47963;53.008;6.754;2022-07-06T10:00:40;17.30;99.90
62007;DHT22;47963;53.008;6.754;2022-07-06T10:03:07;17.30;99.90
62007;DHT22;47963;53.008;6.754;2022-07-06T10:05:37;17.40;99.90
62007;DHT22;47963;53.008;6.754;2022-07-06T10:08:03;17.40;99.90
62007;DHT22;47963;53.008;6.754;2022-07-06T10:10:32;17.40;99.90
62007;DHT22;47963;53.008;6.754;2022-07-06T10:12:58;17.50;99.90
62007;DHT22;47963;53.008;6.754;2022-07-06T10:15:25;17.50;99.90
62007;DHT22;47963;53.008;6.754;2022-07-06T10:17:52;17.80;99.90
62007;DHT22;47963;53.008;6.754;2022-07-06T10:20:19;18.00;99.90
62007;DHT22;47963;53.008;6.754;2022-07-06T10:22:49;18.10;99.90
62007;DHT22;47963;53.008;6.754;2022-07-06T10:25:19;18.10;99.90
62007;DHT22;47963;53.008;6.754;2022-07-06T10:27:48;18.10;99.90
62007;DHT22;47963;53.008;6.754;2022-07-06T10:30:16;18.20;99.90
62007;DHT22;47963;53.008;6.754;2022-07-06T10:32:44;18.10;99.90
62007;DHT22;47963;53.008;6.754;2022-07-06T10:35:12;18.20;99.90
62007;DHT22;47963;53.008;6.754;2022-07-06T10:37:38;18.50;99.90
62007;DHT22;47963;53.008;6.754;2022-07-06T10:40:05;18.40;99.90
62007;DHT22;47963;53.008;6.754;2022-07-06T10:43:00;18.40;99.90
62007;DHT22;47963;53.008;6.754;2022-07-06T10:53:16;18.80;99.90
62007;DHT22;47963;53.008;6.754;2022-07-06T10:55:46;19.00;99.90
62007;DHT22;47963;53.008;6.754;2022-07-06T10:58:13;19.10;99.90
62007;DHT22;47963;53.008;6.754;2022-07-06T11:00:54;19.10;99.90
62007;DHT22;47963;53.008;6.754;2022-07-06T11:06:16;19.60;99.90
62007;DHT22;47963;53.008;6.754;2022-07-06T11:16:38;19.40;99.90
62007;DHT22;47963;53.008;6.754;2022-07-06T11:19:15;19.20;99.90
62007;DHT22;47963;53.008;6.754;2022-07-06T11:21:47;19.00;99.90
62007;DHT22;47963;53.008;6.754;2022-07-06T11:24:16;19.20;99.90
62007;DHT22;47963;53.008;6.754;2022-07-06T11:26:44;18.90;99.90
62007;DHT22;47963;53.008;6.754;2022-07-06T11:29:11;19.00;99.90
62007;DHT22;47963;53.008;6.754;2022-07-06T11:31:39;19.00;99.90
62007;DHT22;47963;53.008;6.754;2022-07-06T11:34:07;19.20;99.90
62007;DHT22;47963;53.008;6.754;2022-07-06T11:36:34;19.70;99.90
62007;DHT22;47963;53.008;6.754;2022-07-06T11:38:59;19.70;99.90
62007;DHT22;47963;53.008;6.754;2022-07-06T11:41:25;19.80;99.90
62007;DHT22;47963;53.008;6.754;2022-07-06T11:43:51;19.60;99.90
62007;DHT22;47963;53.008;6.754;2022-07-06T11:46:27;20.10;99.90
62007;DHT22;47963;53.008;6.754;2022-07-06T11:48:55;20.40;99.90
62007;DHT22;47963;53.008;6.754;2022-07-06T11:51:25;20.30;99.90
62007;DHT22;47963;53.008;6.754;2022-07-06T11:53:54;20.30;99.90
62007;DHT22;47963;53.008;6.754;2022-07-06T11:56:20;20.30;99.90
62007;DHT22;47963;53.008;6.754;2022-07-06T11:58:59;20.10;99.90
62007;DHT22;47963;53.008;6.754;2022-07-06T12:01:27;19.70;99.90
62007;DHT22;47963;53.008;6.754;2022-07-06T12:04:00;19.50;99.90
62007;DHT22;47963;53.008;6.754;2022-07-06T12:06:27;19.30;99.90
62007;DHT22;47963;53.008;6.754;2022-07-06T12:08:55;19.40;99.90
62007;DHT22;47963;53.008;6.754;2022-07-06T12:11:32;19.30;99.90
62007;DHT22;47963;53.008;6.754;2022-07-06T12:14:00;19.40;99.90
62007;DHT22;47963;53.008;6.754;2022-07-06T12:16:33;19.60;99.90
62007;DHT22;47963;53.008;6.754;2022-07-06T12:19:01;19.70;99.90
62007;DHT22;47963;53.008;6.754;2022-07-06T12:21:27;19.60;99.90
62007;DHT22;47963;53.008;6.754;2022-07-06T12:23:54;19.50;99.90
62007;DHT22;47963;53.008;6.754;2022-07-06T12:26:25;19.40;99.90
62007;DHT22;47963;53.008;6.754;2022-07-06T12:29:05;19.60;99.90
62007;DHT22;47963;53.008;6.754;2022-07-06T12:31:38;19.70;99.90
62007;DHT22;47963;53.008;6.754;2022-07-06T12:34:05;19.70;99.90
62007;DHT22;47963;53.008;6.754;2022-07-06T12:37:07;19.60;99.90
62007;DHT22;47963;53.008;6.754;2022-07-06T12:39:45;19.70;99.90
62007;DHT22;47963;53.008;6.754;2022-07-06T12:42:13;19.70;99.90
62007;DHT22;47963;53.008;6.754;2022-07-06T12:44:44;19.60;98.90
62007;DHT22;47963;53.008;6.754;2022-07-06T12:47:11;19.60;99.90
62007;DHT22;47963;53.008;6.754;2022-07-06T12:49:38;19.60;99.90
62007;DHT22;47963;53.008;6.754;2022-07-06T12:52:08;19.70;99.90
62007;DHT22;47963;53.008;6.754;2022-07-06T12:54:35;19.80;99.90
62007;DHT22;47963;53.008;6.754;2022-07-06T12:57:03;19.80;99.90
62007;DHT22;47963;53.008;6.754;2022-07-06T12:59:30;19.70;99.10
62007;DHT22;47963;53.008;6.754;2022-07-06T13:01:57;19.70;96.10
62007;DHT22;47963;53.008;6.754;2022-07-06T13:04:30;19.80;99.40
62007;DHT22;47963;53.008;6.754;2022-07-06T13:07:01;19.70;97.70
62007;DHT22;47963;53.008;6.754;2022-07-06T13:09:27;19.80;97.40
62007;DHT22;47963;53.008;6.754;2022-07-06T13:11:53;19.80;93.40
62007;DHT22;47963;53.008;6.754;2022-07-06T13:14:19;19.80;96.80
62007;DHT22;47963;53.008;6.754;2022-07-06T13:16:46;19.80;98.10
62007;DHT22;47963;53.008;6.754;2022-07-06T13:19:12;19.90;99.90
62007;DHT22;47963;53.008;6.754;2022-07-06T13:21:38;19.80;98.60
62007;DHT22;47963;53.008;6.754;2022-07-06T13:24:05;19.70;98.30
62007;DHT22;47963;53.008;6.754;2022-07-06T13:26:31;19.70;99.70
62007;DHT22;47963;53.008;6.754;2022-07-06T13:29:00;19.50;97.50
62007;DHT22;47963;53.008;6.754;2022-07-06T13:31:27;19.40;97.40
62007;DHT22;47963;53.008;6.754;2022-07-06T13:33:53;19.40;99.80
62007;DHT22;47963;53.008;6.754;2022-07-06T13:36:19;19.40;97.50
62007;DHT22;47963;53.008;6.754;2022-07-06T13:38:47;19.50;99.90
62007;DHT22;47963;53.008;6.754;2022-07-06T13:41:13;19.60;98.00
62007;DHT22;47963;53.008;6.754;2022-07-06T13:43:39;19.50;97.00
62007;DHT22;47963;53.008;6.754;2022-07-06T13:46:05;19.30;99.80
62007;DHT22;47963;53.008;6.754;2022-07-06T13:48:32;19.40;99.90
62007;DHT22;47963;53.008;6.754;2022-07-06T13:50:58;19.40;99.90
62007;DHT22;47963;53.008;6.754;2022-07-06T13:53:25;19.40;99.90
62007;DHT22;47963;53.008;6.754;2022-07-06T13:55:51;19.50;99.90
62007;DHT22;47963;53.008;6.754;2022-07-06T13:58:16;19.40;99.90
62007;DHT22;47963;53.008;6.754;2022-07-06T14:00:42;19.40;99.90
62007;DHT22;47963;53.008;6.754;2022-07-06T14:03:07;19.20;99.90
62007;DHT22;47963;53.008;6.754;2022-07-06T14:05:34;19.20;99.90
62007;DHT22;47963;53.008;6.754;2022-07-06T14:08:00;19.10;99.90
62007;DHT22;47963;53.008;6.754;2022-07-06T14:10:26;19.10;99.90
62007;DHT22;47963;53.008;6.754;2022-07-06T14:12:52;19.00;99.60
62007;DHT22;47963;53.008;6.754;2022-07-06T14:15:17;18.90;99.90
62007;DHT22;47963;53.008;6.754;2022-07-06T14:17:43;19.00;99.90
62007;DHT22;47963;53.008;6.754;2022-07-06T14:20:09;18.90;99.90
62007;DHT22;47963;53.008;6.754;2022-07-06T14:22:35;19.00;99.90
62007;DHT22;47963;53.008;6.754;2022-07-06T14:25:00;19.10;99.90
62007;DHT22;47963;53.008;6.754;2022-07-06T14:27:26;19.00;97.90
62007;DHT22;47963;53.008;6.754;2022-07-06T14:29:52;19.00;98.80
62007;DHT22;47963;53.008;6.754;2022-07-06T14:32:17;19.00;99.20
62007;DHT22;47963;53.008;6.754;2022-07-06T14:34:43;19.00;99.90
62007;DHT22;47963;53.008;6.754;2022-07-06T14:37:09;19.00;99.90
62007;DHT22;47963;53.008;6.754;2022-07-06T14:39:34;18.90;99.90
62007;DHT22;47963;53.008;6.754;2022-07-06T14:42:00;18.80;99.90
62007;DHT22;47963;53.008;6.754;2022-07-06T14:44:26;18.90;99.90
62007;DHT22;47963;53.008;6.754;2022-07-06T14:46:52;18.70;99.90
62007;DHT22;47963;53.008;6.754;2022-07-06T14:49:18;18.70;99.90
62007;DHT22;47963;53.008;6.754;2022-07-06T14:51:44;18.60;99.90
62007;DHT22;47963;53.008;6.754;2022-07-06T14:54:09;18.50;99.90
62007;DHT22;47963;53.008;6.754;2022-07-06T14:56:35;18.50;99.90
62007;DHT22;47963;53.008;6.754;2022-07-06T14:59:02;18.50;99.90
62007;DHT22;47963;53.008;6.754;2022-07-06T15:01:28;18.50;99.90
62007;DHT22;47963;53.008;6.754;2022-07-06T15:03:53;18.50;99.90
62007;DHT22;47963;53.008;6.754;2022-07-06T15:06:22;18.60;99.90
62007;DHT22;47963;53.008;6.754;2022-07-06T15:08:48;18.70;99.90
62007;DHT22;47963;53.008;6.754;2022-07-06T15:11:13;18.60;99.90
62007;DHT22;47963;53.008;6.754;2022-07-06T15:13:39;18.70;99.90
62007;DHT22;47963;53.008;6.754;2022-07-06T15:16:05;18.70;99.90
62007;DHT22;47963;53.008;6.754;2022-07-06T15:18:30;18.60;99.90
62007;DHT22;47963;53.008;6.754;2022-07-06T15:20:56;18.60;99.90
62007;DHT22;47963;53.008;6.754;2022-07-06T15:23:22;18.50;99.90
62007;DHT22;47963;53.008;6.754;2022-07-06T15:25:48;18.50;99.90
62007;DHT22;47963;53.008;6.754;2022-07-06T15:28:14;18.50;99.90
62007;DHT22;47963;53.008;6.754;2022-07-06T15:30:41;18.50;99.90
62007;DHT22;47963;53.008;6.754;2022-07-06T15:33:07;18.40;99.90
62007;DHT22;47963;53.008;6.754;2022-07-06T15:35:34;18.20;99.90
62007;DHT22;47963;53.008;6.754;2022-07-06T15:37:59;18.00;99.90
62007;DHT22;47963;53.008;6.754;2022-07-06T15:40:49;17.80;99.90
62007;DHT22;47963;53.008;6.754;2022-07-06T15:43:27;17.80;99.90
62007;DHT22;47963;53.008;6.754;2022-07-06T15:45:58;17.70;99.90
62007;DHT22;47963;53.008;6.754;2022-07-06T15:48:25;17.70;99.90
62007;DHT22;47963;53.008;6.754;2022-07-06T15:50:55;17.80;99.90